Time;durP1;ratioP1;P1;durP2;ratioP2;P2;SDS_P1;SDS_P2;PMS_P1;PMS_P2;Temp;Humidity;BMP_temperature;BMP_pressure;BME280_temperature;BME280_humidity;BME280_pressure;Samples;Min_cycle;Max_cycle;Signal;HPM_P1;HPM_P2
2024/04/02 00:00:45;;;;;;;8.15;1.92;;;10.40;99.90;;;;;;5042927;28;20141;-79
2024/04/02 00:03:13;;;;;;;4.13;1.35;;;10.60;99.90;;;;;;5085893;28;20031;-76
2024/04/02 00:05:40;;;;;;;6.30;1.77;;;10.50;99.90;;;;;;5101910;28;20119;-76
2024/04/02 00:08:07;;;;;;;4.90;1.70;;;10.40;99.90;;;;;;5097634;28;20089;-76
2024/04/02 00:10:35;;;;;;;4.07;1.73;;;10.40;99.90;;;;;;5077467;28;20020;-75
2024/04/02 00:13:01;;;;;;;7.47;2.33;;;10.40;99.90;;;;;;5095449;28;20031;-77
2024/04/02 00:15:27;;;;;;;6.50;2.38;;;10.40;99.90;;;;;;5056630;28;20120;-76
2024/04/02 00:17:52;;;;;;;4.13;1.98;;;10.40;99.90;;;;;;5041272;28;20126;-77
2024/04/02 00:20:19;;;;;;;7.90;1.55;;;10.40;99.90;;;;;;5062175;28;20158;-77
2024/04/02 00:22:44;;;;;;;6.07;1.75;;;10.40;99.90;;;;;;5077788;28;20917;-77
2024/04/02 00:25:10;;;;;;;7.38;2.30;;;10.40;99.90;;;;;;5074247;28;20072;-77
2024/04/02 00:27:36;;;;;;;11.70;2.15;;;10.20;99.90;;;;;;5076579;28;20554;-78
2024/04/02 00:30:02;;;;;;;7.63;1.50;;;10.10;99.90;;;;;;5061696;28;20182;-76
2024/04/02 00:32:28;;;;;;;5.15;1.40;;;10.20;99.90;;;;;;5079044;28;20046;-76
2024/04/02 00:34:53;;;;;;;4.53;1.73;;;10.30;99.90;;;;;;5088404;28;20480;-77
2024/04/02 00:37:19;;;;;;;5.22;1.65;;;10.20;99.90;;;;;;5076712;28;20024;-77
2024/04/02 00:39:46;;;;;;;4.85;1.40;;;10.20;99.90;;;;;;5095325;28;20051;-77
2024/04/02 00:42:12;;;;;;;5.10;1.90;;;10.10;99.90;;;;;;5079337;28;20055;-76
2024/04/02 00:44:38;;;;;;;4.35;1.67;;;10.20;99.90;;;;;;5068907;28;20028;-78
2024/04/02 00:47:06;;;;;;;6.18;2.00;;;10.30;99.90;;;;;;5080197;28;20028;-74
2024/04/02 00:49:32;;;;;;;8.35;1.90;;;10.20;99.90;;;;;;5098508;28;20035;-76
2024/04/02 00:51:58;;;;;;;8.85;1.80;;;10.20;99.90;;;;;;5054285;28;20029;-77
2024/04/02 00:54:25;;;;;;;5.38;1.50;;;10.30;99.90;;;;;;5089493;28;20039;-77
2024/04/02 00:56:50;;;;;;;7.88;1.90;;;10.40;99.90;;;;;;5094935;28;20388;-78
2024/04/02 00:59:16;;;;;;;4.75;1.48;;;10.40;99.90;;;;;;5059762;28;20119;-77
2024/04/02 01:01:43;;;;;;;5.30;1.60;;;10.40;99.90;;;;;;5076812;28;20103;-78
2024/04/02 01:04:10;;;;;;;4.35;1.50;;;10.30;99.90;;;;;;5076307;28;20032;-76
2024/04/02 01:06:36;;;;;;;4.47;1.40;;;10.40;99.90;;;;;;5059578;28;20024;-77
2024/04/02 01:09:04;;;;;;;5.70;1.98;;;10.40;99.90;;;;;;5079629;28;20424;-77
2024/04/02 01:11:31;;;;;;;4.43;1.40;;;10.40;99.90;;;;;;5042949;28;20032;-76
2024/04/02 01:13:57;;;;;;;5.72;1.60;;;10.60;99.90;;;;;;5093862;28;20024;-78
2024/04/02 01:16:22;;;;;;;5.32;1.15;;;10.60;99.90;;;;;;5059826;28;20078;-76
2024/04/02 01:18:49;;;;;;;6.50;1.88;;;10.60;99.90;;;;;;5075685;28;20036;-79
2024/04/02 01:21:16;;;;;;;6.10;1.90;;;10.50;99.90;;;;;;5094231;28;20067;-76
2024/04/02 01:23:42;;;;;;;5.40;1.70;;;10.40;99.90;;;;;;5075793;28;20076;-77
2024/04/02 01:26:08;;;;;;;4.43;1.52;;;10.40;99.90;;;;;;5075867;28;20056;-78
2024/04/02 01:28:34;;;;;;;6.70;2.10;;;10.50;99.90;;;;;;5076611;28;20027;-75
2024/04/02 01:30:59;;;;;;;4.93;1.70;;;10.20;99.90;;;;;;5042065;28;20093;-77
2024/04/02 01:33:25;;;;;;;6.32;2.00;;;10.00;99.90;;;;;;5075111;28;20401;-76
2024/04/02 01:35:51;;;;;;;4.65;1.50;;;9.90;99.90;;;;;;5057383;28;20049;-76
2024/04/02 01:38:16;;;;;;;9.90;2.05;;;10.00;99.90;;;;;;5075879;28;20032;-77
2024/04/02 01:40:42;;;;;;;4.57;1.80;;;9.90;99.90;;;;;;5043601;28;20066;-78
2024/04/02 01:43:08;;;;;;;6.72;1.75;;;9.80;99.90;;;;;;5039781;28;20045;-78
2024/04/02 01:45:33;;;;;;;4.55;1.92;;;9.80;99.90;;;;;;5037090;28;20039;-75
2024/04/02 01:47:59;;;;;;;6.85;1.75;;;9.90;99.90;;;;;;5085369;28;20033;-77
2024/04/02 01:50:25;;;;;;;7.03;1.67;;;9.80;99.90;;;;;;5072656;28;20426;-78
2024/04/02 01:52:51;;;;;;;4.25;1.52;;;9.80;99.90;;;;;;5076715;28;20024;-77
2024/04/02 01:55:17;;;;;;;4.47;1.90;;;9.80;99.90;;;;;;5074277;28;20038;-77
2024/04/02 01:57:43;;;;;;;5.90;1.77;;;9.90;99.90;;;;;;5041870;28;20024;-78
2024/04/02 02:00:09;;;;;;;10.77;1.65;;;9.70;99.90;;;;;;5052610;28;20054;-75
2024/04/02 02:02:34;;;;;;;5.60;1.58;;;9.80;99.90;;;;;;5056236;28;20056;-77
2024/04/02 02:05:01;;;;;;;4.53;1.27;;;9.70;99.90;;;;;;5039073;28;20075;-77
2024/04/02 02:07:26;;;;;;;9.80;2.13;;;9.70;99.90;;;;;;5057634;28;20520;-75
2024/04/02 02:09:52;;;;;;;8.93;1.83;;;9.60;99.90;;;;;;5075272;28;20025;-78
2024/04/02 02:12:18;;;;;;;9.63;1.92;;;9.60;99.90;;;;;;5071187;28;20024;-74
2024/04/02 02:14:43;;;;;;;6.88;1.42;;;9.60;99.90;;;;;;5083179;28;20025;-76
2024/04/02 02:17:09;;;;;;;7.15;1.65;;;9.70;99.90;;;;;;5077703;28;20119;-77
2024/04/02 02:19:34;;;;;;;8.50;1.80;;;9.70;99.90;;;;;;5091123;28;20047;-78
2024/04/02 02:22:00;;;;;;;4.70;1.50;;;9.70;99.90;;;;;;5057209;28;20031;-76
2024/04/02 02:24:26;;;;;;;9.30;2.33;;;9.70;99.90;;;;;;5092365;28;20052;-76
2024/04/02 02:26:52;;;;;;;13.40;1.67;;;9.70;99.90;;;;;;5075937;28;20020;-78
2024/04/02 02:29:22;;;;;;;7.53;1.73;;;9.70;99.90;;;;;;5072676;28;20032;-77
2024/04/02 02:31:48;;;;;;;4.53;1.35;;;9.70;99.90;;;;;;5059612;28;20493;-78
2024/04/02 02:34:14;;;;;;;8.88;1.92;;;9.70;99.90;;;;;;5056084;28;20043;-77
2024/04/02 02:36:39;;;;;;;11.07;1.50;;;9.70;99.90;;;;;;5096842;28;20480;-78
2024/04/02 02:39:05;;;;;;;6.32;2.17;;;9.70;99.90;;;;;;5098069;28;20081;-74
2024/04/02 02:41:31;;;;;;;7.78;1.55;;;9.70;99.90;;;;;;5078884;28;20111;-76
2024/04/02 02:43:58;;;;;;;7.97;1.48;;;9.70;99.90;;;;;;5096460;28;20023;-77
2024/04/02 02:46:24;;;;;;;6.38;1.95;;;9.80;99.90;;;;;;5091361;28;20032;-76
2024/04/02 02:48:49;;;;;;;5.28;1.77;;;9.80;99.90;;;;;;5052133;28;20357;-78
2024/04/02 02:51:15;;;;;;;8.80;2.63;;;9.70;99.90;;;;;;5074032;28;20035;-78
2024/04/02 02:53:41;;;;;;;8.65;1.65;;;9.70;99.90;;;;;;5055972;28;20028;-76
2024/04/02 02:56:06;;;;;;;8.05;1.73;;;9.70;99.90;;;;;;5074624;28;20038;-76
2024/04/02 02:58:32;;;;;;;5.10;1.50;;;9.70;99.90;;;;;;5040189;28;20039;-77
2024/04/02 03:01:03;;;;;;;6.38;1.48;;;9.70;99.90;;;;;;5056233;28;20032;-76
2024/04/02 03:03:28;;;;;;;8.82;2.00;;;9.70;99.90;;;;;;5075353;28;20443;-76
2024/04/02 03:05:55;;;;;;;8.43;2.45;;;9.70;99.90;;;;;;5057344;28;20032;-74
2024/04/02 03:08:24;;;;;;;11.40;1.77;;;9.80;99.90;;;;;;5092793;28;20028;-77
2024/04/02 03:11:04;;;;;;;12.52;2.55;;;9.80;99.90;;;;;;5072518;28;20057;-76
2024/04/02 03:13:34;;;;;;;12.20;2.28;;;9.80;99.90;;;;;;5056387;28;20035;-76
2024/04/02 03:16:01;;;;;;;10.48;1.70;;;9.70;99.90;;;;;;5069852;28;20020;-78
2024/04/02 03:18:27;;;;;;;12.35;1.90;;;9.60;99.90;;;;;;5075856;28;20119;-79
2024/04/02 03:20:53;;;;;;;8.90;2.05;;;9.60;99.90;;;;;;5075958;28;20064;-79
2024/04/02 03:23:22;;;;;;;7.63;1.73;;;9.50;99.90;;;;;;5056336;28;20056;-77
2024/04/02 03:26:00;;;;;;;17.15;2.97;;;9.50;99.90;;;;;;5090633;28;20020;-77
2024/04/02 03:28:26;;;;;;;11.00;2.75;;;9.50;99.90;;;;;;5052236;28;20040;-76
2024/04/02 03:31:00;;;;;;;8.07;1.85;;;9.50;99.90;;;;;;5058294;28;20040;-78
2024/04/02 03:33:26;;;;;;;11.68;1.67;;;9.50;99.90;;;;;;5045443;28;20040;-77
2024/04/02 03:35:53;;;;;;;11.95;2.10;;;9.50;99.90;;;;;;5052125;28;20437;-77
2024/04/02 03:38:19;;;;;;;11.68;1.92;;;9.50;99.90;;;;;;5092319;28;20392;-78
2024/04/02 03:40:47;;;;;;;8.00;2.00;;;9.60;99.90;;;;;;5074296;28;20635;-76
2024/04/02 03:43:13;;;;;;;14.93;2.70;;;9.60;99.90;;;;;;5077322;28;20020;-77
2024/04/02 03:45:39;;;;;;;10.73;2.00;;;9.60;99.90;;;;;;5074124;28;20379;-74
2024/04/02 03:48:06;;;;;;;14.80;1.92;;;9.60;99.90;;;;;;5072885;28;20119;-75
2024/04/02 03:50:33;;;;;;;12.10;2.13;;;9.60;99.90;;;;;;5046297;28;20504;-77
2024/04/02 03:52:59;;;;;;;13.10;2.58;;;9.60;99.90;;;;;;5075836;28;20023;-76
2024/04/02 03:55:24;;;;;;;10.77;2.67;;;9.60;99.90;;;;;;5043712;28;20040;-74
2024/04/02 03:57:50;;;;;;;12.57;2.00;;;9.60;99.90;;;;;;5061943;28;20024;-76
2024/04/02 04:00:16;;;;;;;10.13;2.60;;;9.60;99.90;;;;;;5078462;28;20040;-75
2024/04/02 04:02:41;;;;;;;16.83;2.75;;;9.60;99.90;;;;;;5058702;28;20020;-75
2024/04/02 04:05:07;;;;;;;12.80;2.10;;;9.40;99.90;;;;;;5052785;28;20029;-78
2024/04/02 04:07:33;;;;;;;13.00;2.92;;;9.40;99.90;;;;;;5071072;28;20017;-75
2024/04/02 04:09:58;;;;;;;13.70;2.60;;;9.30;99.90;;;;;;5079158;28;20080;-76
2024/04/02 04:12:24;;;;;;;14.45;2.45;;;9.30;99.90;;;;;;5054770;28;20028;-76
2024/04/02 04:14:50;;;;;;;20.45;3.97;;;9.20;99.90;;;;;;5064648;28;20512;-78
2024/04/02 04:17:16;;;;;;;18.98;3.30;;;9.20;99.90;;;;;;5075154;28;20028;-78
2024/04/02 04:19:42;;;;;;;16.20;3.42;;;9.20;99.90;;;;;;5072695;28;20048;-77
2024/04/02 04:22:07;;;;;;;12.52;2.28;;;9.20;99.90;;;;;;5048616;28;20047;-77
2024/04/02 04:24:33;;;;;;;16.52;2.50;;;9.20;99.90;;;;;;5096916;28;20056;-74
2024/04/02 04:26:59;;;;;;;21.40;3.03;;;9.20;99.90;;;;;;5038098;28;20028;-78
2024/04/02 04:29:24;;;;;;;13.20;2.83;;;9.30;99.90;;;;;;5096228;28;20032;-79
2024/04/02 04:31:50;;;;;;;21.58;2.80;;;9.30;99.90;;;;;;5058069;28;20036;-76
2024/04/02 04:34:17;;;;;;;14.68;3.20;;;9.40;99.90;;;;;;5057616;28;20126;-76
2024/04/02 04:36:43;;;;;;;21.33;3.05;;;9.40;99.90;;;;;;5077890;28;20059;-77
2024/04/02 04:39:10;;;;;;;24.73;3.47;;;9.40;99.90;;;;;;5077441;28;20056;-77
2024/04/02 04:41:35;;;;;;;15.52;3.45;;;9.30;99.90;;;;;;5091870;28;20032;-78
2024/04/02 04:44:01;;;;;;;16.48;2.78;;;9.20;99.90;;;;;;5044483;28;20032;-77
2024/04/02 04:46:27;;;;;;;12.98;2.55;;;9.30;99.90;;;;;;5041610;28;20451;-78
2024/04/02 04:48:53;;;;;;;17.13;2.83;;;9.40;99.90;;;;;;5056291;28;20143;-78
2024/04/02 04:51:18;;;;;;;13.02;2.45;;;9.40;99.90;;;;;;5055554;28;20040;-77
2024/04/02 04:53:44;;;;;;;16.48;2.67;;;9.40;99.90;;;;;;5060029;28;20032;-77
2024/04/02 04:56:10;;;;;;;15.88;2.72;;;9.50;99.90;;;;;;5077038;28;20059;-76
2024/04/02 04:58:36;;;;;;;21.88;3.65;;;9.50;99.90;;;;;;5075658;28;20039;-75
2024/04/02 05:01:03;;;;;;;17.23;2.80;;;9.60;99.90;;;;;;5051797;28;20040;-75
2024/04/02 05:03:29;;;;;;;15.82;2.60;;;9.70;99.90;;;;;;5079350;28;20008;-77
2024/04/02 05:06:21;;;;;;;14.00;2.25;;;9.60;99.90;;;;;;5109078;28;20050;-78
2024/04/02 05:08:47;;;;;;;19.17;3.47;;;9.60;99.90;;;;;;5103093;28;20043;-78
2024/04/02 05:11:13;;;;;;;24.70;3.45;;;9.60;99.90;;;;;;5062817;28;20032;-78
2024/04/02 05:13:40;;;;;;;19.00;3.75;;;9.50;99.90;;;;;;5077050;28;20111;-77
2024/04/02 05:16:07;;;;;;;20.30;3.63;;;9.50;99.90;;;;;;5079303;28;20045;-76
2024/04/02 05:18:33;;;;;;;23.00;2.90;;;9.50;99.90;;;;;;5075563;28;20032;-76
2024/04/02 05:20:59;;;;;;;21.05;3.47;;;9.50;99.90;;;;;;5068880;28;20439;-76
2024/04/02 05:23:26;;;;;;;16.90;3.65;;;9.50;99.90;;;;;;5068729;28;20056;-77
2024/04/02 05:25:58;;;;;;;18.20;2.97;;;9.50;99.90;;;;;;5082593;28;20039;-77
2024/04/02 05:28:23;;;;;;;18.30;2.67;;;9.50;99.90;;;;;;5104094;28;20060;-77
2024/04/02 05:30:49;;;;;;;23.48;3.15;;;9.50;99.90;;;;;;5074410;28;20416;-76
2024/04/02 05:33:15;;;;;;;15.38;3.45;;;9.50;99.90;;;;;;5060825;28;20032;-78
2024/04/02 05:35:40;;;;;;;17.73;3.05;;;9.60;99.90;;;;;;5054324;28;20035;-77
2024/04/02 05:38:07;;;;;;;20.45;2.70;;;9.60;99.90;;;;;;5073144;28;20033;-75
2024/04/02 05:40:33;;;;;;;17.77;3.70;;;9.60;99.90;;;;;;5062062;28;20028;-75
2024/04/02 05:42:59;;;;;;;15.82;2.67;;;9.60;99.90;;;;;;5074139;28;20032;-77
2024/04/02 05:45:24;;;;;;;29.88;3.58;;;9.70;99.90;;;;;;5059714;28;20040;-75
2024/04/02 05:47:50;;;;;;;18.25;2.65;;;9.70;99.90;;;;;;5094197;28;20028;-74
2024/04/02 05:50:17;;;;;;;20.33;3.25;;;9.60;99.90;;;;;;5074589;28;20032;-76
2024/04/02 05:52:43;;;;;;;20.83;3.15;;;9.70;99.90;;;;;;5063723;28;20037;-77
2024/04/02 05:55:09;;;;;;;19.30;3.47;;;9.70;99.90;;;;;;5060314;28;20024;-77
2024/04/02 05:57:35;;;;;;;27.90;4.75;;;9.70;99.90;;;;;;5076414;28;20039;-77
2024/04/02 06:00:01;;;;;;;25.83;2.92;;;9.70;99.90;;;;;;5042489;28;20037;-78
2024/04/02 06:02:27;;;;;;;23.85;4.13;;;9.70;99.90;;;;;;5064850;28;20059;-77
2024/04/02 06:04:53;;;;;;;23.42;3.10;;;9.70;99.90;;;;;;5039921;28;20060;-77
2024/04/02 06:07:19;;;;;;;23.98;3.55;;;9.80;99.90;;;;;;5076702;28;20025;-77
2024/04/02 06:09:44;;;;;;;15.32;3.42;;;9.70;99.90;;;;;;5074060;28;20123;-77
2024/04/02 06:12:10;;;;;;;18.17;3.83;;;9.70;99.90;;;;;;5071535;28;20028;-77
2024/04/02 06:14:36;;;;;;;27.10;4.40;;;9.70;99.90;;;;;;5058808;28;20460;-77
2024/04/02 06:17:02;;;;;;;29.55;3.45;;;9.80;99.90;;;;;;5060935;28;20054;-77
2024/04/02 06:19:30;;;;;;;19.65;4.18;;;9.80;99.90;;;;;;5077695;28;20028;-77
2024/04/02 06:21:56;;;;;;;14.85;2.63;;;9.80;99.90;;;;;;5048800;28;20035;-76
2024/04/02 06:24:22;;;;;;;20.80;3.45;;;9.90;99.90;;;;;;5079736;28;20047;-76
2024/04/02 06:26:47;;;;;;;21.15;3.40;;;9.90;99.90;;;;;;5048832;28;20380;-77
2024/04/02 06:29:13;;;;;;;21.77;3.33;;;9.90;99.90;;;;;;5092209;28;20036;-76
2024/04/02 06:31:39;;;;;;;20.23;2.42;;;9.90;99.90;;;;;;5053083;28;20711;-78
2024/04/02 06:34:04;;;;;;;25.13;3.25;;;9.90;99.90;;;;;;5043227;28;20067;-76
2024/04/02 06:36:30;;;;;;;13.02;3.17;;;9.90;99.90;;;;;;5072743;28;20029;-79
2024/04/02 06:38:56;;;;;;;18.10;2.90;;;9.90;99.90;;;;;;5066565;28;20028;-77
2024/04/02 06:41:22;;;;;;;22.77;3.13;;;10.00;99.90;;;;;;5075165;28;20497;-77
2024/04/02 06:43:48;;;;;;;16.00;2.88;;;10.10;99.90;;;;;;5055291;28;20118;-77
2024/04/02 06:46:13;;;;;;;21.55;2.97;;;10.10;99.90;;;;;;5069201;28;20551;-78
2024/04/02 06:48:39;;;;;;;17.55;4.07;;;10.20;99.90;;;;;;5038873;28;20036;-76
2024/04/02 06:51:07;;;;;;;21.10;3.40;;;10.20;99.90;;;;;;5074335;28;20036;-77
2024/04/02 06:53:33;;;;;;;22.70;3.50;;;10.20;99.90;;;;;;5063843;28;20035;-76
2024/04/02 06:55:59;;;;;;;18.38;2.90;;;10.20;99.90;;;;;;5058979;28;20032;-79
2024/04/02 06:58:26;;;;;;;25.58;3.38;;;10.20;99.90;;;;;;5059419;28;20036;-77
2024/04/02 07:00:53;;;;;;;18.83;3.63;;;10.20;99.90;;;;;;5080342;28;20035;-78
2024/04/02 07:03:21;;;;;;;22.40;2.95;;;10.30;99.90;;;;;;5097014;28;20020;-80
2024/04/02 07:05:48;;;;;;;16.80;3.08;;;10.20;99.90;;;;;;5089348;28;20054;-76
2024/04/02 07:08:13;;;;;;;16.77;2.90;;;10.30;99.90;;;;;;5048941;28;20032;-78
2024/04/02 07:10:44;;;;;;;25.27;3.25;;;10.30;99.90;;;;;;5056287;28;20493;-79
2024/04/02 07:13:11;;;;;;;24.90;3.75;;;10.40;99.90;;;;;;5065233;28;20028;-78
2024/04/02 07:15:40;;;;;;;13.20;2.25;;;10.40;99.90;;;;;;5082027;28;20070;-77
2024/04/02 07:18:06;;;;;;;23.02;3.50;;;10.40;99.90;;;;;;5102169;28;20024;-76
2024/04/02 07:20:32;;;;;;;16.08;3.35;;;10.50;99.90;;;;;;5084659;28;20039;-78
2024/04/02 07:22:58;;;;;;;23.33;3.65;;;10.60;99.90;;;;;;5082422;28;20060;-78
2024/04/02 07:25:24;;;;;;;17.17;3.75;;;10.70;99.90;;;;;;5084528;28;20028;-78
2024/04/02 07:27:50;;;;;;;17.55;2.97;;;10.80;99.90;;;;;;5083761;28;20032;-77
2024/04/02 07:30:16;;;;;;;16.48;3.22;;;11.00;99.90;;;;;;5065833;28;20513;-77
2024/04/02 07:32:42;;;;;;;21.27;3.53;;;11.20;99.90;;;;;;5067701;28;20038;-76
2024/04/02 07:35:08;;;;;;;17.27;3.38;;;11.20;99.90;;;;;;5100431;28;20039;-79
2024/04/02 07:37:34;;;;;;;19.00;3.33;;;11.20;99.90;;;;;;5080121;28;20048;-78
2024/04/02 07:39:59;;;;;;;14.98;3.10;;;11.10;99.90;;;;;;5048112;28;20413;-77
2024/04/02 07:42:25;;;;;;;12.68;2.67;;;11.10;99.90;;;;;;5066825;28;20020;-77
2024/04/02 07:44:51;;;;;;;11.05;2.28;;;11.00;99.90;;;;;;5090105;28;20036;-78
2024/04/02 07:47:17;;;;;;;20.42;3.08;;;10.90;99.90;;;;;;5111150;28;20016;-76
2024/04/02 07:49:42;;;;;;;21.63;3.00;;;10.90;99.90;;;;;;5091967;28;20036;-77
2024/04/02 07:52:08;;;;;;;22.13;3.03;;;10.90;99.90;;;;;;5058558;28;20059;-77
2024/04/02 07:54:34;;;;;;;17.45;3.13;;;10.80;99.90;;;;;;5059115;28;20028;-77
2024/04/02 07:56:59;;;;;;;17.92;3.58;;;10.70;99.90;;;;;;5044376;28;20032;-76
2024/04/02 07:59:25;;;;;;;13.82;3.03;;;10.70;99.90;;;;;;5078085;28;20039;-77
2024/04/02 08:01:51;;;;;;;22.23;3.08;;;10.80;99.90;;;;;;5045931;28;20032;-77
2024/04/02 08:04:20;;;;;;;20.52;3.60;;;10.90;99.90;;;;;;5079407;28;20477;-75
2024/04/02 08:06:46;;;;;;;16.80;3.25;;;10.90;99.90;;;;;;5092560;28;20024;-75
2024/04/02 08:09:11;;;;;;;13.88;3.17;;;10.90;99.90;;;;;;5078615;28;20032;-75
2024/04/02 08:11:38;;;;;;;15.82;3.17;;;10.90;99.90;;;;;;5053231;28;20419;-76
2024/04/02 08:14:04;;;;;;;16.33;3.17;;;10.90;99.90;;;;;;5063590;28;20028;-77
2024/04/02 08:16:32;;;;;;;22.30;2.70;;;10.90;99.90;;;;;;5062024;28;20038;-80
2024/04/02 08:18:57;;;;;;;20.67;2.97;;;11.00;99.90;;;;;;5056113;28;20060;-75
2024/04/02 08:21:23;;;;;;;21.55;3.30;;;11.00;99.90;;;;;;5031746;28;20472;-76
2024/04/02 08:23:49;;;;;;;15.43;2.83;;;11.00;99.90;;;;;;5045279;28;20136;-78
2024/04/02 08:26:15;;;;;;;12.60;2.55;;;10.90;99.90;;;;;;5078455;28;20100;-78
2024/04/02 08:28:40;;;;;;;17.35;3.38;;;10.90;99.90;;;;;;5072094;28;20032;-78
2024/04/02 08:31:06;;;;;;;14.68;2.50;;;11.00;99.90;;;;;;5057419;28;20047;-75
2024/04/02 08:33:32;;;;;;;14.77;3.50;;;10.80;99.90;;;;;;5090685;28;20031;-78
2024/04/02 08:35:58;;;;;;;21.70;3.05;;;10.60;99.90;;;;;;5062492;28;20031;-76
2024/04/02 08:38:23;;;;;;;17.27;2.88;;;10.50;99.90;;;;;;5067824;28;20028;-76
2024/04/02 08:40:54;;;;;;;15.77;2.72;;;10.30;99.90;;;;;;5083665;28;20036;-78
2024/04/02 08:43:21;;;;;;;28.50;3.30;;;10.10;99.90;;;;;;5080701;28;20024;-77
2024/04/02 08:45:47;;;;;;;15.57;3.00;;;10.10;99.90;;;;;;5063129;28;20036;-78
2024/04/02 08:48:14;;;;;;;21.92;3.00;;;10.10;99.90;;;;;;5079360;28;20138;-77
2024/04/02 08:50:40;;;;;;;16.45;2.53;;;10.20;99.90;;;;;;5078516;28;20035;-77
2024/04/02 08:53:07;;;;;;;16.15;3.08;;;10.40;99.90;;;;;;5077639;28;20016;-76
2024/04/02 08:55:36;;;;;;;23.40;3.85;;;10.20;99.90;;;;;;5079317;28;20382;-76
2024/04/02 08:58:05;;;;;;;16.38;3.28;;;10.20;99.90;;;;;;5098642;28;20092;-76
2024/04/02 09:00:31;;;;;;;22.85;3.85;;;10.20;99.90;;;;;;5049599;28;20032;-75
2024/04/02 09:02:57;;;;;;;19.38;3.72;;;10.20;99.90;;;;;;5077486;28;20495;-78
2024/04/02 09:05:23;;;;;;;21.20;3.05;;;10.20;99.90;;;;;;5097053;28;20020;-76
2024/04/02 09:07:50;;;;;;;25.65;3.65;;;10.10;99.90;;;;;;5097852;28;20027;-77
2024/04/02 09:10:15;;;;;;;19.83;3.17;;;10.00;99.90;;;;;;5077238;28;20032;-76
2024/04/02 09:12:41;;;;;;;19.63;3.00;;;9.90;99.90;;;;;;5081702;28;20374;-76
2024/04/02 09:15:07;;;;;;;23.05;3.47;;;9.70;99.90;;;;;;5063627;28;20032;-78
2024/04/02 09:17:34;;;;;;;15.15;2.53;;;9.60;99.90;;;;;;5082207;28;20032;-74
2024/04/02 09:19:59;;;;;;;20.50;3.38;;;9.60;99.90;;;;;;5097663;28;20142;-76
2024/04/02 09:22:25;;;;;;;23.02;3.65;;;9.60;99.90;;;;;;5044259;28;20081;-75
2024/04/02 09:24:51;;;;;;;17.63;3.00;;;9.60;99.90;;;;;;5073644;28;20028;-76
2024/04/02 09:27:18;;;;;;;20.58;3.92;;;9.60;99.90;;;;;;5072281;28;20024;-73
2024/04/02 09:29:44;;;;;;;25.33;3.20;;;9.70;99.90;;;;;;5076586;28;20933;-74
2024/04/02 09:32:10;;;;;;;20.10;3.20;;;9.70;99.90;;;;;;5075671;28;20111;-74
2024/04/02 09:34:38;;;;;;;14.02;2.75;;;9.90;99.90;;;;;;5076783;28;20397;-73
2024/04/02 09:37:04;;;;;;;19.50;3.78;;;10.00;99.90;;;;;;5076604;28;20031;-74
2024/04/02 09:39:30;;;;;;;27.77;4.03;;;9.90;99.90;;;;;;5074201;28;20032;-73
2024/04/02 09:41:58;;;;;;;19.48;4.13;;;9.80;99.90;;;;;;5074910;28;20127;-74
2024/04/02 09:44:28;;;;;;;16.85;3.42;;;9.80;99.90;;;;;;5058989;28;20060;-74
2024/04/02 09:46:56;;;;;;;16.90;3.35;;;9.90;99.90;;;;;;5094180;28;20020;-73
2024/04/02 09:49:23;;;;;;;23.15;3.75;;;10.10;99.90;;;;;;5093470;28;20028;-75
2024/04/02 09:51:53;;;;;;;19.40;3.17;;;10.10;99.90;;;;;;5076667;28;20039;-73
2024/04/02 09:54:21;;;;;;;22.27;3.00;;;10.20;99.90;;;;;;5091619;28;20427;-74
2024/04/02 09:56:49;;;;;;;16.63;3.25;;;10.20;99.90;;;;;;5076094;28;20023;-75
2024/04/02 09:59:14;;;;;;;21.45;3.17;;;10.00;99.90;;;;;;5075974;28;20039;-78
2024/04/02 10:01:42;;;;;;;24.13;3.75;;;10.00;99.90;;;;;;5047703;28;20035;-76
2024/04/02 10:04:11;;;;;;;19.40;4.03;;;9.90;99.90;;;;;;5085856;28;20024;-75
2024/04/02 10:06:37;;;;;;;21.25;3.47;;;10.00;99.90;;;;;;5082803;28;20028;-75
2024/04/02 10:09:08;;;;;;;30.88;3.67;;;10.20;99.90;;;;;;5062499;28;20074;-76
2024/04/02 10:11:41;;;;;;;19.55;4.50;;;10.20;99.90;;;;;;5093747;28;20020;-77
2024/04/02 10:14:08;;;;;;;20.02;3.75;;;10.30;99.90;;;;;;5076365;28;20024;-74
2024/04/02 10:16:35;;;;;;;30.20;3.78;;;10.40;99.90;;;;;;5077043;28;20024;-75
2024/04/02 10:19:02;;;;;;;25.45;4.63;;;10.40;99.90;;;;;;5055711;28;20041;-77
2024/04/02 10:21:31;;;;;;;23.50;4.10;;;10.40;99.90;;;;;;5081021;28;20100;-76
2024/04/02 10:23:58;;;;;;;23.27;4.68;;;10.70;99.90;;;;;;5066569;28;20059;-75
2024/04/02 10:26:29;;;;;;;29.55;4.25;;;10.70;99.90;;;;;;5048788;28;20052;-76
2024/04/02 10:28:55;;;;;;;19.20;4.05;;;10.60;99.90;;;;;;5076380;28;20377;-75
2024/04/02 10:31:21;;;;;;;29.98;4.15;;;10.70;99.90;;;;;;5093269;28;20031;-74
2024/04/02 10:33:52;;;;;;;21.33;3.78;;;10.60;99.90;;;;;;5075290;28;20024;-75
2024/04/02 10:36:18;;;;;;;17.33;3.70;;;11.10;99.90;;;;;;5091909;28;20054;-75
2024/04/02 10:38:44;;;;;;;36.17;8.43;;;11.30;99.90;;;;;;5057000;28;20316;-75
2024/04/02 10:41:11;;;;;;;26.48;4.07;;;11.40;99.90;;;;;;5074350;28;20036;-75
2024/04/02 10:43:37;;;;;;;20.30;3.63;;;12.00;99.90;;;;;;5033490;28;20059;-77
2024/04/02 10:46:04;;;;;;;23.73;3.78;;;11.70;99.90;;;;;;5076261;28;20118;-75
2024/04/02 10:48:30;;;;;;;22.00;3.78;;;11.60;99.90;;;;;;5086956;28;20032;-76
2024/04/02 10:50:55;;;;;;;25.00;3.55;;;11.50;99.90;;;;;;5055523;28;20066;-75
2024/04/02 10:53:21;;;;;;;31.02;3.58;;;11.30;99.90;;;;;;5048587;28;20095;-75
2024/04/02 10:55:47;;;;;;;17.90;3.90;;;11.30;99.90;;;;;;5059197;28;20025;-78
2024/04/02 10:58:14;;;;;;;23.67;4.05;;;11.30;99.90;;;;;;5074171;28;20523;-78
2024/04/02 11:00:39;;;;;;;15.02;2.58;;;11.30;99.90;;;;;;5078188;28;20036;-75
2024/04/02 11:03:06;;;;;;;18.55;3.15;;;11.30;99.90;;;;;;5063761;28;20046;-76
2024/04/02 11:05:31;;;;;;;21.17;3.03;;;11.10;99.90;;;;;;5078365;28;20119;-74
2024/04/02 11:07:57;;;;;;;26.30;3.38;;;10.90;99.90;;;;;;5075118;28;20120;-75
2024/04/02 11:10:23;;;;;;;18.35;3.53;;;10.80;99.90;;;;;;5075520;28;20877;-74
2024/04/02 11:12:49;;;;;;;22.27;3.40;;;10.70;99.90;;;;;;5057881;28;20066;-76
2024/04/02 11:15:16;;;;;;;20.48;3.72;;;10.80;99.90;;;;;;5091972;28;20089;-75
2024/04/02 11:17:42;;;;;;;21.00;4.30;;;10.80;99.90;;;;;;5091289;28;20375;-75
2024/04/02 11:20:11;;;;;;;18.73;3.90;;;10.80;99.90;;;;;;5075677;28;20085;-76
2024/04/02 11:25:22;;;;;;;21.58;4.30;;;10.80;99.90;;;;;;5057133;28;20040;-76
2024/04/02 11:27:48;;;;;;;20.13;3.90;;;10.80;99.90;;;;;;5058790;28;20028;-75
2024/04/02 11:30:16;;;;;;;13.20;3.33;;;10.90;99.90;;;;;;5093344;28;20417;-76
2024/04/02 11:32:42;;;;;;;17.33;2.97;;;11.00;99.90;;;;;;5093558;28;20029;-75
2024/04/02 11:35:15;;;;;;;27.80;4.57;;;11.00;99.90;;;;;;5074940;28;20035;-76
2024/04/02 11:37:43;;;;;;;19.10;2.50;;;11.10;99.90;;;;;;5056994;28;20500;-76
2024/04/02 11:40:17;;;;;;;17.92;3.00;;;11.00;99.90;;;;;;5064902;28;20036;-76
2024/04/02 11:42:44;;;;;;;13.35;3.03;;;11.00;99.90;;;;;;5060420;28;20028;-77
2024/04/02 11:45:10;;;;;;;23.25;3.00;;;11.00;99.90;;;;;;5094102;28;20019;-76
2024/04/02 11:47:36;;;;;;;16.88;2.88;;;11.10;99.90;;;;;;5092846;28;20020;-75
2024/04/02 11:50:06;;;;;;;15.82;2.95;;;10.90;99.90;;;;;;5059115;28;20101;-76
2024/04/02 11:52:33;;;;;;;19.00;3.22;;;10.50;99.90;;;;;;5074531;28;20042;-73
2024/04/02 11:54:59;;;;;;;14.50;2.90;;;10.40;99.90;;;;;;5074667;28;20548;-75
2024/04/02 12:00:13;;;;;;;15.98;2.97;;;10.40;99.90;;;;;;5098603;28;20085;-75
2024/04/02 12:02:46;;;;;;;15.45;3.33;;;10.40;99.90;;;;;;5060033;28;20035;-75
2024/04/02 12:05:14;;;;;;;27.38;3.47;;;10.30;99.90;;;;;;5077866;28;20020;-76
2024/04/02 12:07:40;;;;;;;19.02;3.55;;;10.40;99.90;;;;;;5077417;28;20032;-76
2024/04/02 12:10:07;;;;;;;16.05;2.72;;;10.40;99.90;;;;;;5077477;28;20024;-76
2024/04/02 12:12:34;;;;;;;20.02;4.13;;;10.40;99.90;;;;;;5095782;28;20048;-75
2024/04/02 12:15:01;;;;;;;20.77;3.38;;;10.40;99.90;;;;;;5077291;28;20055;-75
2024/04/02 12:17:27;;;;;;;30.90;4.90;;;10.50;99.90;;;;;;5076889;28;20447;-76
2024/04/02 12:19:55;;;;;;;23.45;3.83;;;10.60;99.90;;;;;;5096209;28;20119;-75
2024/04/02 12:22:24;;;;;;;24.05;3.90;;;10.60;99.90;;;;;;5067643;28;20052;-74
2024/04/02 12:24:51;;;;;;;16.65;3.10;;;10.60;99.90;;;;;;5061316;28;20021;-75
2024/04/02 12:27:19;;;;;;;17.35;3.03;;;10.60;99.90;;;;;;5066029;28;20102;-75
2024/04/02 12:29:44;;;;;;;20.08;3.88;;;10.60;99.90;;;;;;5077592;28;20081;-75
2024/04/02 12:32:11;;;;;;;30.25;5.45;;;10.60;99.90;;;;;;5052110;28;20033;-76
2024/04/02 12:34:37;;;;;;;20.00;3.45;;;10.70;99.90;;;;;;5060443;28;20032;-75
2024/04/02 12:37:03;;;;;;;17.88;3.85;;;10.80;99.90;;;;;;5077796;28;20150;-75
2024/04/02 12:39:30;;;;;;;18.67;3.25;;;11.00;99.90;;;;;;5077449;28;20114;-77
2024/04/02 12:41:56;;;;;;;26.80;4.88;;;11.60;99.90;;;;;;5079683;28;20458;-75
2024/04/02 12:44:22;;;;;;;21.85;3.63;;;11.80;99.90;;;;;;5084519;28;20052;-75